sensor_id;sensor_type;location;lat;lon;timestamp;pressure;altitude;pressure_sealevel;temperature;humidity
10476;BME280;26166;48.264;11.436;2024-01-10T00:00:47;96893.13;;;5.78;37.75
10476;BME280;26166;48.264;11.436;2024-01-10T00:03:47;96892.91;;;5.81;37.42
10476;BME280;26166;48.264;11.436;2024-01-10T00:06:47;96887.69;;;5.81;37.26
10476;BME280;26166;48.264;11.436;2024-01-10T00:09:47;96895.28;;;5.85;37.10
10476;BME280;26166;48.264;11.436;2024-01-10T00:12:47;96895.97;;;5.87;36.59
10476;BME280;26166;48.264;11.436;2024-01-10T00:15:48;96891.00;;;5.95;36.33
10476;BME280;26166;48.264;11.436;2024-01-10T00:18:48;96888.16;;;5.98;36.35
10476;BME280;26166;48.264;11.436;2024-01-10T00:21:49;96891.22;;;6.03;36.28
10476;BME280;26166;48.264;11.436;2024-01-10T00:24:49;96887.06;;;6.00;36.15
10476;BME280;26166;48.264;11.436;2024-01-10T00:27:49;96888.72;;;6.01;36.06
10476;BME280;26166;48.264;11.436;2024-01-10T00:30:49;96889.31;;;6.05;36.32
10476;BME280;26166;48.264;11.436;2024-01-10T00:33:50;96887.44;;;6.07;36.34
10476;BME280;26166;48.264;11.436;2024-01-10T00:36:50;96892.63;;;6.07;36.72
10476;BME280;26166;48.264;11.436;2024-01-10T00:39:50;96883.84;;;6.08;36.17
10476;BME280;26166;48.264;11.436;2024-01-10T00:42:50;96889.06;;;6.08;36.99
10476;BME280;26166;48.264;11.436;2024-01-10T00:45:50;96886.69;;;6.05;36.82
10476;BME280;26166;48.264;11.436;2024-01-10T00:48:51;96887.66;;;6.04;36.94
10476;BME280;26166;48.264;11.436;2024-01-10T00:51:51;96890.28;;;6.04;37.01
10476;BME280;26166;48.264;11.436;2024-01-10T00:54:51;96899.06;;;6.03;37.59
10476;BME280;26166;48.264;11.436;2024-01-10T00:57:51;96907.69;;;6.03;37.24
10476;BME280;26166;48.264;11.436;2024-01-10T01:00:51;96897.13;;;6.05;36.94
10476;BME280;26166;48.264;11.436;2024-01-10T01:03:52;96889.06;;;6.08;37.43
10476;BME280;26166;48.264;11.436;2024-01-10T01:06:53;96888.84;;;6.11;36.81
10476;BME280;26166;48.264;11.436;2024-01-10T01:09:53;96890.47;;;6.12;37.22
10476;BME280;26166;48.264;11.436;2024-01-10T01:12:54;96897.13;;;6.16;37.03
10476;BME280;26166;48.264;11.436;2024-01-10T01:15:54;96889.16;;;6.18;37.19
10476;BME280;26166;48.264;11.436;2024-01-10T01:18:54;96888.34;;;6.17;37.63
10476;BME280;26166;48.264;11.436;2024-01-10T01:21:54;96889.03;;;6.19;36.88
10476;BME280;26166;48.264;11.436;2024-01-10T01:24:54;96902.06;;;6.19;36.91
10476;BME280;26166;48.264;11.436;2024-01-10T01:27:55;96897.94;;;6.17;37.21
10476;BME280;26166;48.264;11.436;2024-01-10T01:30:55;96894.50;;;6.16;36.83
10476;BME280;26166;48.264;11.436;2024-01-10T01:33:55;96895.44;;;6.15;36.98
10476;BME280;26166;48.264;11.436;2024-01-10T01:36:55;96899.81;;;6.15;37.20
10476;BME280;26166;48.264;11.436;2024-01-10T01:39:55;96904.13;;;6.16;36.50
10476;BME280;26166;48.264;11.436;2024-01-10T01:42:55;96902.34;;;6.16;37.01
10476;BME280;26166;48.264;11.436;2024-01-10T01:45:56;96913.47;;;6.18;37.35
10476;BME280;26166;48.264;11.436;2024-01-10T01:48:56;96910.03;;;6.18;37.49
10476;BME280;26166;48.264;11.436;2024-01-10T01:51:56;96912.50;;;6.19;37.22
10476;BME280;26166;48.264;11.436;2024-01-10T01:54:57;96911.81;;;6.17;36.89
10476;BME280;26166;48.264;11.436;2024-01-10T01:57:57;96916.19;;;6.17;37.30
10476;BME280;26166;48.264;11.436;2024-01-10T02:00:57;96915.38;;;6.16;36.91
10476;BME280;26166;48.264;11.436;2024-01-10T02:03:59;96931.03;;;6.16;37.24
10476;BME280;26166;48.264;11.436;2024-01-10T02:07:00;96924.84;;;6.17;37.39
10476;BME280;26166;48.264;11.436;2024-01-10T02:10:01;96915.38;;;6.16;37.27
10476;BME280;26166;48.264;11.436;2024-01-10T02:13:01;96917.84;;;6.18;37.08
10476;BME280;26166;48.264;11.436;2024-01-10T02:16:03;96910.84;;;6.18;37.32
10476;BME280;26166;48.264;11.436;2024-01-10T02:19:17;96920.31;;;6.19;36.95
10476;BME280;26166;48.264;11.436;2024-01-10T02:22:17;96916.06;;;6.18;37.35
10476;BME280;26166;48.264;11.436;2024-01-10T02:25:17;96916.06;;;6.18;36.95
10476;BME280;26166;48.264;11.436;2024-01-10T02:28:17;96919.63;;;6.17;36.71
10476;BME280;26166;48.264;11.436;2024-01-10T02:31:18;96923.19;;;6.16;37.33
10476;BME280;26166;48.264;11.436;2024-01-10T02:34:18;96922.25;;;6.17;37.13
10476;BME280;26166;48.264;11.436;2024-01-10T02:37:18;96920.69;;;6.15;37.53
10476;BME280;26166;48.264;11.436;2024-01-10T02:40:18;96925.34;;;6.11;37.44
10476;BME280;26166;48.264;11.436;2024-01-10T02:43:18;96920.13;;;6.11;37.11
10476;BME280;26166;48.264;11.436;2024-01-10T02:46:18;96921.88;;;6.11;37.76
10476;BME280;26166;48.264;11.436;2024-01-10T02:49:20;96913.25;;;6.10;37.21
10476;BME280;26166;48.264;11.436;2024-01-10T02:52:20;96914.06;;;6.11;37.51
10476;BME280;26166;48.264;11.436;2024-01-10T02:55:20;96913.13;;;6.12;37.43
10476;BME280;26166;48.264;11.436;2024-01-10T02:58:21;96923.44;;;6.13;37.80
10476;BME280;26166;48.264;11.436;2024-01-10T03:01:22;96921.53;;;6.15;37.74
10476;BME280;26166;48.264;11.436;2024-01-10T03:04:22;96907.56;;;6.16;37.50
10476;BME280;26166;48.264;11.436;2024-01-10T03:07:22;96906.72;;;6.16;38.17
10476;BME280;26166;48.264;11.436;2024-01-10T03:10:24;96903.16;;;6.17;37.60
10476;BME280;26166;48.264;11.436;2024-01-10T03:13:25;96903.41;;;6.14;37.61
10476;BME280;26166;48.264;11.436;2024-01-10T03:16:25;96899.13;;;6.13;37.97
10476;BME280;26166;48.264;11.436;2024-01-10T03:19:25;96901.88;;;6.11;38.29
10476;BME280;26166;48.264;11.436;2024-01-10T03:22:25;96897.84;;;6.07;38.52
10476;BME280;26166;48.264;11.436;2024-01-10T03:25:25;96899.50;;;6.08;38.37
10476;BME280;26166;48.264;11.436;2024-01-10T03:28:26;96894.28;;;6.08;38.22
10476;BME280;26166;48.264;11.436;2024-01-10T03:31:26;96888.84;;;6.11;38.23
10476;BME280;26166;48.264;11.436;2024-01-10T03:34:27;96882.41;;;6.15;38.24
10476;BME280;26166;48.264;11.436;2024-01-10T03:37:28;96885.97;;;6.14;38.82
10476;BME280;26166;48.264;11.436;2024-01-10T03:40:28;96881.69;;;6.13;38.85
10476;BME280;26166;48.264;11.436;2024-01-10T03:43:28;96876.47;;;6.13;38.25
10476;BME280;26166;48.264;11.436;2024-01-10T03:46:28;96880.06;;;6.12;38.46
10476;BME280;26166;48.264;11.436;2024-01-10T03:49:29;96889.06;;;6.08;38.63
10476;BME280;26166;48.264;11.436;2024-01-10T03:52:29;96874.63;;;6.04;39.01
10476;BME280;26166;48.264;11.436;2024-01-10T03:55:29;96871.28;;;6.02;39.30
10476;BME280;26166;48.264;11.436;2024-01-10T03:58:29;96883.63;;;6.00;39.10
10476;BME280;26166;48.264;11.436;2024-01-10T04:01:30;96885.41;;;5.99;38.76
10476;BME280;26166;48.264;11.436;2024-01-10T04:04:30;96884.34;;;6.02;39.16
10476;BME280;26166;48.264;11.436;2024-01-10T04:07:33;96882.22;;;6.07;39.38
10476;BME280;26166;48.264;11.436;2024-01-10T04:10:33;96883.34;;;6.14;39.49
10476;BME280;26166;48.264;11.436;2024-01-10T04:13:33;96875.28;;;6.17;39.18
10476;BME280;26166;48.264;11.436;2024-01-10T04:16:33;96876.25;;;6.16;39.10
10476;BME280;26166;48.264;11.436;2024-01-10T04:19:34;96876.06;;;5.97;38.89
10476;BME280;26166;48.264;11.436;2024-01-10T04:22:34;96871.59;;;5.65;38.62
10476;BME280;26166;48.264;11.436;2024-01-10T04:25:34;96875.63;;;5.36;39.54
10476;BME280;26166;48.264;11.436;2024-01-10T04:28:34;96881.44;;;5.39;40.22
10476;BME280;26166;48.264;11.436;2024-01-10T04:31:34;96884.66;;;5.54;40.09
10476;BME280;26166;48.264;11.436;2024-01-10T04:34:35;96874.31;;;5.64;39.46
10476;BME280;26166;48.264;11.436;2024-01-10T04:37:36;96884.97;;;5.72;39.50
10476;BME280;26166;48.264;11.436;2024-01-10T04:40:36;96880.47;;;5.74;39.91
10476;BME280;26166;48.264;11.436;2024-01-10T04:43:36;96876.53;;;5.79;39.55
10476;BME280;26166;48.264;11.436;2024-01-10T04:46:36;96881.16;;;5.87;39.68
10476;BME280;26166;48.264;11.436;2024-01-10T04:49:36;96883.63;;;5.89;39.29
10476;BME280;26166;48.264;11.436;2024-01-10T04:52:36;96875.59;;;5.92;39.33
10476;BME280;26166;48.264;11.436;2024-01-10T04:55:37;96874.41;;;5.96;39.54
10476;BME280;26166;48.264;11.436;2024-01-10T04:58:37;96878.41;;;6.00;39.98
10476;BME280;26166;48.264;11.436;2024-01-10T05:01:37;96877.38;;;6.02;39.52
10476;BME280;26166;48.264;11.436;2024-01-10T05:04:37;96884.34;;;6.02;39.82
10476;BME280;26166;48.264;11.436;2024-01-10T05:07:37;96886.00;;;6.03;39.42
10476;BME280;26166;48.264;11.436;2024-01-10T05:10:38;96883.84;;;6.08;39.60
10476;BME280;26166;48.264;11.436;2024-01-10T05:13:38;96879.22;;;6.12;39.40
10476;BME280;26166;48.264;11.436;2024-01-10T05:16:39;96878.41;;;6.11;39.29
10476;BME280;26166;48.264;11.436;2024-01-10T05:19:39;96880.88;;;6.13;39.08
10476;BME280;26166;48.264;11.436;2024-01-10T05:22:39;96887.88;;;6.12;39.54
10476;BME280;26166;48.264;11.436;2024-01-10T05:25:40;96877.44;;;6.12;39.20
10476;BME280;26166;48.264;11.436;2024-01-10T05:28:40;96887.16;;;6.10;39.59
10476;BME280;26166;48.264;11.436;2024-01-10T05:31:40;96891.44;;;6.11;39.34
10476;BME280;26166;48.264;11.436;2024-01-10T05:34:40;96886.34;;;6.10;39.12
10476;BME280;26166;48.264;11.436;2024-01-10T05:37:40;96890.97;;;6.06;38.97
10476;BME280;26166;48.264;11.436;2024-01-10T05:40:41;96896.91;;;6.08;40.21
10476;BME280;26166;48.264;11.436;2024-01-10T05:43:41;96890.47;;;6.12;39.85
10476;BME280;26166;48.264;11.436;2024-01-10T05:46:41;96899.00;;;6.14;39.37
10476;BME280;26166;48.264;11.436;2024-01-10T05:49:42;96907.78;;;6.13;39.61
10476;BME280;26166;48.264;11.436;2024-01-10T05:52:43;96919.19;;;6.12;39.40
10476;BME280;26166;48.264;11.436;2024-01-10T05:55:43;96922.75;;;6.11;39.67
10476;BME280;26166;48.264;11.436;2024-01-10T05:58:44;96923.56;;;6.12;39.84
10476;BME280;26166;48.264;11.436;2024-01-10T06:01:44;96920.38;;;6.08;39.88
10476;BME280;26166;48.264;11.436;2024-01-10T06:04:44;96923.22;;;6.05;39.72
10476;BME280;26166;48.264;11.436;2024-01-10T06:07:44;96920.84;;;6.02;39.68
10476;BME280;26166;48.264;11.436;2024-01-10T06:10:44;96924.41;;;6.01;39.84
10476;BME280;26166;48.264;11.436;2024-01-10T06:13:45;96918.72;;;5.96;39.42
10476;BME280;26166;48.264;11.436;2024-01-10T06:16:45;96913.84;;;5.91;40.29
10476;BME280;26166;48.264;11.436;2024-01-10T06:19:45;96907.34;;;5.86;40.40
10476;BME280;26166;48.264;11.436;2024-01-10T06:22:46;96911.75;;;5.85;39.88
10476;BME280;26166;48.264;11.436;2024-01-10T06:25:46;96912.56;;;5.86;40.32
10476;BME280;26166;48.264;11.436;2024-01-10T06:28:46;96908.31;;;5.85;40.72
10476;BME280;26166;48.264;11.436;2024-01-10T06:31:47;96919.94;;;5.92;39.85
10476;BME280;26166;48.264;11.436;2024-01-10T06:34:47;96919.69;;;5.95;40.18
10476;BME280;26166;48.264;11.436;2024-01-10T06:37:47;96920.50;;;5.95;41.17
10476;BME280;26166;48.264;11.436;2024-01-10T06:40:48;96913.97;;;5.90;39.84
10476;BME280;26166;48.264;11.436;2024-01-10T06:43:48;96920.16;;;5.66;39.84
10476;BME280;26166;48.264;11.436;2024-01-10T06:46:48;96922.31;;;5.39;40.08
10476;BME280;26166;48.264;11.436;2024-01-10T06:49:48;96922.91;;;5.20;40.93
10476;BME280;26166;48.264;11.436;2024-01-10T06:52:49;96926.31;;;4.98;40.68
10476;BME280;26166;48.264;11.436;2024-01-10T06:55:49;96927.34;;;4.84;41.30
10476;BME280;26166;48.264;11.436;2024-01-10T06:58:49;96930.56;;;4.88;41.63
10476;BME280;26166;48.264;11.436;2024-01-10T07:01:52;96927.13;;;4.98;41.60
10476;BME280;26166;48.264;11.436;2024-01-10T07:04:53;96935.66;;;5.12;40.86
10476;BME280;26166;48.264;11.436;2024-01-10T07:07:53;96922.91;;;5.20;40.65
10476;BME280;26166;48.264;11.436;2024-01-10T07:10:53;96932.63;;;5.29;40.97
10476;BME280;26166;48.264;11.436;2024-01-10T07:13:55;96941.72;;;5.35;40.80
10476;BME280;26166;48.264;11.436;2024-01-10T07:16:55;96946.47;;;5.41;40.80
10476;BME280;26166;48.264;11.436;2024-01-10T07:19:56;96937.50;;;5.45;41.07
10476;BME280;26166;48.264;11.436;2024-01-10T07:22:57;96947.19;;;5.54;40.76
10476;BME280;26166;48.264;11.436;2024-01-10T07:25:57;96950.28;;;5.59;40.42
10476;BME280;26166;48.264;11.436;2024-01-10T07:28:57;96956.66;;;5.66;40.08
10476;BME280;26166;48.264;11.436;2024-01-10T07:31:57;96953.81;;;5.69;39.94
10476;BME280;26166;48.264;11.436;2024-01-10T07:34:58;96952.63;;;5.73;40.01
10476;BME280;26166;48.264;11.436;2024-01-10T07:37:58;96958.66;;;5.74;40.08
10476;BME280;26166;48.264;11.436;2024-01-10T07:40:58;96950.72;;;5.75;40.55
10476;BME280;26166;48.264;11.436;2024-01-10T07:43:59;96956.66;;;5.77;39.85
10476;BME280;26166;48.264;11.436;2024-01-10T07:46:59;96954.75;;;5.79;40.11
10476;BME280;26166;48.264;11.436;2024-01-10T07:49:59;96960.69;;;5.81;40.10
10476;BME280;26166;48.264;11.436;2024-01-10T07:53:00;96962.56;;;5.79;40.09
10476;BME280;26166;48.264;11.436;2024-01-10T07:56:01;96964.47;;;5.77;39.93
10476;BME280;26166;48.264;11.436;2024-01-10T07:59:01;96970.38;;;5.79;40.27
10476;BME280;26166;48.264;11.436;2024-01-10T08:02:01;96972.91;;;5.81;39.84
10476;BME280;26166;48.264;11.436;2024-01-10T08:05:05;96973.50;;;5.85;40.23
10476;BME280;26166;48.264;11.436;2024-01-10T08:08:08;96976.94;;;5.85;40.26
10476;BME280;26166;48.264;11.436;2024-01-10T08:11:09;96974.41;;;5.83;40.01
10476;BME280;26166;48.264;11.436;2024-01-10T08:14:09;96970.88;;;5.85;40.32
10476;BME280;26166;48.264;11.436;2024-01-10T08:17:09;96978.72;;;5.85;40.00
10476;BME280;26166;48.264;11.436;2024-01-10T08:20:09;96969.19;;;5.83;40.06
10476;BME280;26166;48.264;11.436;2024-01-10T08:23:10;96974.41;;;5.83;39.91
10476;BME280;26166;48.264;11.436;2024-01-10T08:26:10;96979.75;;;5.82;40.02
10476;BME280;26166;48.264;11.436;2024-01-10T08:29:11;96979.16;;;5.78;40.80
10476;BME280;26166;48.264;11.436;2024-01-10T08:32:11;96980.81;;;5.79;40.13
10476;BME280;26166;48.264;11.436;2024-01-10T08:35:12;96988.63;;;5.79;40.06
10476;BME280;26166;48.264;11.436;2024-01-10T08:38:12;96990.19;;;5.82;40.45
10476;BME280;26166;48.264;11.436;2024-01-10T08:41:12;96981.53;;;5.81;40.15
10476;BME280;26166;48.264;11.436;2024-01-10T08:44:12;96980.81;;;5.79;40.58
10476;BME280;26166;48.264;11.436;2024-01-10T08:47:13;96986.03;;;5.79;39.88
10476;BME280;26166;48.264;11.436;2024-01-10T08:50:13;96985.34;;;5.77;40.44
10476;BME280;26166;48.264;11.436;2024-01-10T08:53:14;96987.34;;;5.74;40.43
10476;BME280;26166;48.264;11.436;2024-01-10T08:56:14;96985.56;;;5.74;40.29
10476;BME280;26166;48.264;11.436;2024-01-10T08:59:15;96988.53;;;5.70;40.16
10476;BME280;26166;48.264;11.436;2024-01-10T09:02:15;96986.66;;;5.72;40.30
10476;BME280;26166;48.264;11.436;2024-01-10T09:05:15;96993.38;;;5.74;40.13
10476;BME280;26166;48.264;11.436;2024-01-10T09:08:15;96997.91;;;5.72;40.13
10476;BME280;26166;48.264;11.436;2024-01-10T09:11:16;96999.56;;;5.73;40.68
10476;BME280;26166;48.264;11.436;2024-01-10T09:14:16;97008.06;;;5.75;39.82
10476;BME280;26166;48.264;11.436;2024-01-10T09:17:16;97014.97;;;5.76;40.17
10476;BME280;26166;48.264;11.436;2024-01-10T09:20:17;97002.41;;;5.81;40.09
10476;BME280;26166;48.264;11.436;2024-01-10T09:23:17;97006.66;;;5.82;40.08
10476;BME280;26166;48.264;11.436;2024-01-10T09:26:19;97006.66;;;5.82;40.09
10476;BME280;26166;48.264;11.436;2024-01-10T09:29:19;97011.66;;;5.86;40.34
10476;BME280;26166;48.264;11.436;2024-01-10T09:32:19;97017.56;;;5.88;39.58
10476;BME280;26166;48.264;11.436;2024-01-10T09:35:19;97023.50;;;5.90;39.70
10476;BME280;26166;48.264;11.436;2024-01-10T09:38:20;97013.81;;;5.92;40.26
10476;BME280;26166;48.264;11.436;2024-01-10T09:41:20;97017.34;;;5.91;39.95
10476;BME280;26166;48.264;11.436;2024-01-10T09:44:20;97017.56;;;5.88;40.23
10476;BME280;26166;48.264;11.436;2024-01-10T09:47:21;97024.44;;;5.89;40.37
10476;BME280;26166;48.264;11.436;2024-01-10T09:50:22;97025.06;;;5.92;40.03
10476;BME280;26166;48.264;11.436;2024-01-10T09:53:22;97024.00;;;5.95;40.01
10476;BME280;26166;48.264;11.436;2024-01-10T09:56:32;97022.34;;;5.94;40.05
10476;BME280;26166;48.264;11.436;2024-01-10T09:59:32;97020.44;;;5.96;40.27
10476;BME280;26166;48.264;11.436;2024-01-10T10:02:33;97024.22;;;5.92;39.96
10476;BME280;26166;48.264;11.436;2024-01-10T10:05:34;97027.75;;;5.91;40.24
10476;BME280;26166;48.264;11.436;2024-01-10T10:08:35;97024.97;;;5.94;40.26
10476;BME280;26166;48.264;11.436;2024-01-10T10:11:36;97020.44;;;5.96;40.54
10476;BME280;26166;48.264;11.436;2024-01-10T10:14:36;97021.84;;;6.00;39.94
10476;BME280;26166;48.264;11.436;2024-01-10T10:17:36;97017.47;;;6.00;40.12
10476;BME280;26166;48.264;11.436;2024-01-10T10:20:37;97024.59;;;5.98;39.86
10476;BME280;26166;48.264;11.436;2024-01-10T10:23:39;97029.44;;;5.92;39.86
10476;BME280;26166;48.264;11.436;2024-01-10T10:26:39;97029.53;;;5.90;40.47
10476;BME280;26166;48.264;11.436;2024-01-10T10:29:41;97034.44;;;5.95;40.15
10476;BME280;26166;48.264;11.436;2024-01-10T10:32:41;97030.38;;;5.91;39.91
10476;BME280;26166;48.264;11.436;2024-01-10T10:35:44;97029.91;;;5.86;39.56
10476;BME280;26166;48.264;11.436;2024-01-10T10:38:45;97034.38;;;5.83;40.00
10476;BME280;26166;48.264;11.436;2024-01-10T10:41:47;97031.41;;;5.88;40.02
10476;BME280;26166;48.264;11.436;2024-01-10T10:44:47;97029.44;;;5.92;40.04
10476;BME280;26166;48.264;11.436;2024-01-10T10:47:49;97031.09;;;5.93;40.01
10476;BME280;26166;48.264;11.436;2024-01-10T10:50:50;97028.25;;;5.96;39.77
10476;BME280;26166;48.264;11.436;2024-01-10T10:53:54;97030.63;;;5.99;39.94
10476;BME280;26166;48.264;11.436;2024-01-10T10:56:55;97033.13;;;6.00;39.84
10476;BME280;26166;48.264;11.436;2024-01-10T10:59:57;97026.13;;;6.01;40.43
10476;BME280;26166;48.264;11.436;2024-01-10T11:02:58;97027.91;;;6.00;40.06
10476;BME280;26166;48.264;11.436;2024-01-10T11:05:58;97027.31;;;5.97;40.57
10476;BME280;26166;48.264;11.436;2024-01-10T11:09:02;97030.88;;;5.96;40.11
10476;BME280;26166;48.264;11.436;2024-01-10T11:24:58;97032.06;;;6.03;41.03
10476;BME280;26166;48.264;11.436;2024-01-10T11:28:02;97037.03;;;6.06;40.21
10476;BME280;26166;48.264;11.436;2024-01-10T11:31:03;97030.97;;;6.05;40.49
10476;BME280;26166;48.264;11.436;2024-01-10T11:34:05;97030.97;;;6.05;40.10
10476;BME280;26166;48.264;11.436;2024-01-10T11:37:10;97030.38;;;6.02;40.76
10476;BME280;26166;48.264;11.436;2024-01-10T11:40:13;97028.50;;;6.04;40.47
10476;BME280;26166;48.264;11.436;2024-01-10T11:43:14;97036.31;;;6.04;40.52
10476;BME280;26166;48.264;11.436;2024-01-10T11:46:14;97023.28;;;5.93;40.59
10476;BME280;26166;48.264;11.436;2024-01-10T11:49:16;97025.88;;;5.93;40.63
10476;BME280;26166;48.264;11.436;2024-01-10T11:52:16;97027.75;;;5.91;40.65
10476;BME280;26166;48.264;11.436;2024-01-10T11:55:46;97027.03;;;5.89;40.55
10476;BME280;26166;48.264;11.436;2024-01-10T11:58:53;97032.03;;;5.80;41.47
10476;BME280;26166;48.264;11.436;2024-01-10T12:01:53;97027.75;;;5.79;41.63
10476;BME280;26166;48.264;11.436;2024-01-10T12:04:54;97032.59;;;5.84;41.25
10476;BME280;26166;48.264;11.436;2024-01-10T12:07:54;97033.81;;;5.91;40.76
10476;BME280;26166;48.264;11.436;2024-01-10T12:10:55;97040.59;;;5.94;40.64
10476;BME280;26166;48.264;11.436;2024-01-10T12:13:58;97035.25;;;5.95;41.00
10476;BME280;26166;48.264;11.436;2024-01-10T12:17:01;97036.09;;;5.96;40.81
10476;BME280;26166;48.264;11.436;2024-01-10T12:20:04;97027.31;;;5.97;40.55
10476;BME280;26166;48.264;11.436;2024-01-10T12:23:08;97023.78;;;5.98;40.63
10476;BME280;26166;48.264;11.436;2024-01-10T12:26:14;97025.66;;;5.96;41.29
10476;BME280;26166;48.264;11.436;2024-01-10T12:29:17;97021.03;;;5.99;40.93
10476;BME280;26166;48.264;11.436;2024-01-10T12:32:18;97014.72;;;6.02;40.73
10476;BME280;26166;48.264;11.436;2024-01-10T12:35:22;97016.66;;;6.00;41.04
10476;BME280;26166;48.264;11.436;2024-01-10T12:38:27;97015.09;;;5.97;40.74
10476;BME280;26166;48.264;11.436;2024-01-10T12:41:27;97020.44;;;5.96;40.89
10476;BME280;26166;48.264;11.436;2024-01-10T12:44:30;97020.22;;;5.99;41.14
10476;BME280;26166;48.264;11.436;2024-01-10T12:47:31;97013.34;;;5.98;41.09
10476;BME280;26166;48.264;11.436;2024-01-10T12:50:42;97013.69;;;5.93;41.30
10476;BME280;26166;48.264;11.436;2024-01-10T12:53:42;97005.97;;;5.92;41.22
10476;BME280;26166;48.264;11.436;2024-01-10T12:56:46;97018.16;;;5.91;41.50
10476;BME280;26166;48.264;11.436;2024-01-10T12:59:46;97007.13;;;5.88;41.50
10476;BME280;26166;48.264;11.436;2024-01-10T13:02:46;97006.44;;;5.86;41.61
10476;BME280;26166;48.264;11.436;2024-01-10T13:05:47;97007.72;;;5.91;41.67
10476;BME280;26166;48.264;11.436;2024-01-10T13:08:47;97013.06;;;5.90;41.63
10476;BME280;26166;48.264;11.436;2024-01-10T13:11:48;97011.38;;;5.89;41.68
10476;BME280;26166;48.264;11.436;2024-01-10T13:14:48;97012.13;;;5.91;41.15
10476;BME280;26166;48.264;11.436;2024-01-10T13:17:48;97006.72;;;5.94;41.46
10476;BME280;26166;48.264;11.436;2024-01-10T13:20:49;97008.94;;;5.98;41.00
10476;BME280;26166;48.264;11.436;2024-01-10T13:23:50;97019.13;;;6.01;41.47
10476;BME280;26166;48.264;11.436;2024-01-10T13:26:54;97012.13;;;6.02;41.52
10476;BME280;26166;48.264;11.436;2024-01-10T13:29:54;97013.69;;;6.04;41.47
10476;BME280;26166;48.264;11.436;2024-01-10T13:32:54;97014.72;;;6.02;41.32
10476;BME280;26166;48.264;11.436;2024-01-10T13:35:54;97016.66;;;6.00;41.10
10476;BME280;26166;48.264;11.436;2024-01-10T13:38:55;97019.25;;;6.00;40.96
10476;BME280;26166;48.264;11.436;2024-01-10T13:41:55;97022.09;;;5.97;41.88
10476;BME280;26166;48.264;11.436;2024-01-10T13:44:55;97021.53;;;5.93;41.20
10476;BME280;26166;48.264;11.436;2024-01-10T13:47:55;97012.75;;;5.94;41.95
10476;BME280;26166;48.264;11.436;2024-01-10T13:50:56;97019.47;;;5.97;41.53
10476;BME280;26166;48.264;11.436;2024-01-10T13:53:56;97015.09;;;5.97;41.45
10476;BME280;26166;48.264;11.436;2024-01-10T13:56:57;97024.00;;;5.95;41.40
10476;BME280;26166;48.264;11.436;2024-01-10T13:59:57;97022.34;;;5.94;41.76
10476;BME280;26166;48.264;11.436;2024-01-10T14:02:57;97019.75;;;5.94;41.85
10476;BME280;26166;48.264;11.436;2024-01-10T14:06:00;97024.97;;;5.94;41.88
10476;BME280;26166;48.264;11.436;2024-01-10T14:09:00;97026.75;;;5.93;41.42
10476;BME280;26166;48.264;11.436;2024-01-10T14:12:01;97030.16;;;5.94;41.52
10476;BME280;26166;48.264;11.436;2024-01-10T14:15:02;97028.59;;;5.91;41.74
10476;BME280;26166;48.264;11.436;2024-01-10T14:18:02;97026.59;;;5.95;42.14
10476;BME280;26166;48.264;11.436;2024-01-10T14:21:02;97027.31;;;5.97;42.26
10476;BME280;26166;48.264;11.436;2024-01-10T14:24:03;97032.16;;;6.01;41.69
10476;BME280;26166;48.264;11.436;2024-01-10T14:27:03;97036.31;;;6.04;42.09
10476;BME280;26166;48.264;11.436;2024-01-10T14:30:04;97033.34;;;5.97;42.28
10476;BME280;26166;48.264;11.436;2024-01-10T14:33:04;97034.16;;;5.87;41.76
10476;BME280;26166;48.264;11.436;2024-01-10T14:36:04;97044.13;;;5.81;42.15
10476;BME280;26166;48.264;11.436;2024-01-10T14:39:05;97045.78;;;5.82;41.85
10476;BME280;26166;48.264;11.436;2024-01-10T14:42:07;97042.22;;;5.83;42.15
10476;BME280;26166;48.264;11.436;2024-01-10T14:45:08;97040.56;;;5.82;42.23
10476;BME280;26166;48.264;11.436;2024-01-10T14:48:10;97037.00;;;5.83;42.25
10476;BME280;26166;48.264;11.436;2024-01-10T14:51:10;97047.19;;;5.87;42.75
10476;BME280;26166;48.264;11.436;2024-01-10T14:54:11;97043.41;;;5.91;42.00
10476;BME280;26166;48.264;11.436;2024-01-10T14:57:11;97041.53;;;5.93;42.78
10476;BME280;26166;48.264;11.436;2024-01-10T15:00:11;97041.31;;;5.96;42.43
10476;BME280;26166;48.264;11.436;2024-01-10T15:03:12;97042.03;;;5.98;41.96
10476;BME280;26166;48.264;11.436;2024-01-10T15:06:12;97031.69;;;5.96;42.26
10476;BME280;26166;48.264;11.436;2024-01-10T15:09:15;97034.22;;;5.98;42.09
10476;BME280;26166;48.264;11.436;2024-01-10T15:12:16;97043.56;;;6.00;41.66
10476;BME280;26166;48.264;11.436;2024-01-10T15:15:16;97038.34;;;6.00;42.43
10476;BME280;26166;48.264;11.436;2024-01-10T15:18:16;97040.25;;;5.98;42.69
10476;BME280;26166;48.264;11.436;2024-01-10T15:21:18;97046.28;;;5.99;42.68
10476;BME280;26166;48.264;11.436;2024-01-10T15:24:19;97040.34;;;5.97;42.06
10476;BME280;26166;48.264;11.436;2024-01-10T15:27:21;97048.16;;;5.97;42.70
10476;BME280;26166;48.264;11.436;2024-01-10T15:30:21;97048.44;;;5.94;42.24
10476;BME280;26166;48.264;11.436;2024-01-10T15:33:21;97042.25;;;5.95;42.09
10476;BME280;26166;48.264;11.436;2024-01-10T15:36:22;97044.03;;;5.94;42.28
10476;BME280;26166;48.264;11.436;2024-01-10T15:39:22;97046.97;;;5.90;42.84
10476;BME280;26166;48.264;11.436;2024-01-10T15:42:24;97051.22;;;5.91;42.47
10476;BME280;26166;48.264;11.436;2024-01-10T15:45:24;97053.84;;;5.91;42.79
10476;BME280;26166;48.264;11.436;2024-01-10T15:48:25;97052.91;;;5.92;42.76
10476;BME280;26166;48.264;11.436;2024-01-10T15:51:27;97049.34;;;5.93;42.41
10476;BME280;26166;48.264;11.436;2024-01-10T15:54:27;97053.97;;;5.89;42.72
10476;BME280;26166;48.264;11.436;2024-01-10T15:57:28;97056.66;;;5.88;42.54
10476;BME280;26166;48.264;11.436;2024-01-10T16:00:28;97058.31;;;5.89;42.71
10476;BME280;26166;48.264;11.436;2024-01-10T16:03:28;97057.41;;;5.90;43.26
10476;BME280;26166;48.264;11.436;2024-01-10T16:06:30;97062.38;;;5.93;42.74
10476;BME280;26166;48.264;11.436;2024-01-10T16:09:30;97066.16;;;5.89;42.53